Time;durP1;ratioP1;P1;durP2;ratioP2;P2;SDS_P1;SDS_P2;PMS_P1;PMS_P2;Temp;Humidity;BMP_temperature;BMP_pressure;BME280_temperature;BME280_humidity;BME280_pressure;Samples;Min_cycle;Max_cycle;Signal;HPM_P1;HPM_P2
2023/07/11 00:00:25;;;;;;;;;;;;;;;20.01;100.00;98681.28;2624241;28;19943;-92
2023/07/11 00:02:00;;;;;;;;;;;;;;;19.98;100.00;98677.00;2625839;28;19927;-93
2023/07/11 00:03:16;;;;;;;;;;;;;;;19.85;100.00;98674.25;2627562;28;20065;-93
2023/07/11 00:04:33;;;;;;;;;;;;;;;19.69;100.00;98687.59;2624480;28;19970;-95
2023/07/11 00:06:02;;;;;;;;;;;;;;;19.76;100.00;98683.59;2638226;28;20006;-93
2023/07/11 00:07:17;;;;;;;;;;;;;;;19.69;100.00;98681.44;2642129;28;19920;-95
2023/07/11 00:08:33;;;;;;;;;;;;;;;19.66;100.00;98682.50;2636085;28;19939;-94
2023/07/11 00:09:49;;;;;;;;;;;;;;;19.88;100.00;98689.13;2636883;28;20018;-92
2023/07/11 00:11:06;;;;;;;;;;;;;;;19.69;100.00;98684.09;2633465;28;19916;-91
2023/07/11 00:12:28;;;;;;;;;;;;;;;19.70;100.00;98685.81;2641702;28;19951;-91
2023/07/11 00:13:45;;;;;;;;;;;;;;;19.73;100.00;98686.47;2642249;28;19915;-93
2023/07/11 00:15:00;;;;;;;;;;;;;;;19.65;100.00;98691.41;2626263;28;20030;-91
2023/07/11 00:16:17;;;;;;;;;;;;;;;19.83;100.00;98684.09;2624843;28;19924;-93
2023/07/11 00:17:32;;;;;;;;;;;;;;;19.82;100.00;98690.34;2626059;28;19924;-94
2023/07/11 00:18:50;;;;;;;;;;;;;;;19.79;100.00;98682.56;2629363;28;19924;-92
2023/07/11 00:20:08;;;;;;;;;;;;;;;19.76;100.00;98683.59;2622411;28;20416;-93
2023/07/11 00:21:23;;;;;;;;;;;;;;;19.58;100.00;98684.75;2625248;28;19959;-96
2023/07/11 00:22:39;;;;;;;;;;;;;;;19.50;100.00;98679.91;2624280;28;20027;-94
2023/07/11 00:24:03;;;;;;;;;;;;;;;19.46;100.00;98683.72;2623019;28;19924;-95
2023/07/11 00:25:18;;;;;;;;;;;;;;;19.49;100.00;98680.88;2626178;28;20390;-94
2023/07/11 00:26:34;;;;;;;;;;;;;;;19.49;100.00;98680.88;2624587;28;19924;-95
2023/07/11 00:27:50;;;;;;;;;;;;;;;19.39;100.00;98685.88;2620957;28;19925;-96
2023/07/11 00:29:21;;;;;;;;;;;;;;;19.36;100.00;98686.09;2620947;28;19945;-95
2023/07/11 00:30:40;;;;;;;;;;;;;;;19.41;100.00;98685.78;2631123;28;19923;-94
2023/07/11 00:31:55;;;;;;;;;;;;;;;19.39;100.00;98687.69;2631936;28;19967;-95
2023/07/11 00:33:11;;;;;;;;;;;;;;;19.38;100.00;98688.63;2631201;28;20407;-94
2023/07/11 00:34:26;;;;;;;;;;;;;;;19.44;100.00;98686.44;2624554;28;19928;-95
2023/07/11 00:35:45;;;;;;;;;;;;;;;19.40;100.00;98692.91;2631043;28;19924;-95
2023/07/11 00:37:04;;;;;;;;;;;;;;;19.30;100.00;98692.63;2636119;28;20317;-95
2023/07/11 00:38:19;;;;;;;;;;;;;;;19.15;100.00;98691.72;2630670;28;19920;-95
2023/07/11 00:39:35;;;;;;;;;;;;;;;19.26;100.00;98687.56;2624618;28;19963;-95
2023/07/11 00:40:51;;;;;;;;;;;;;;;19.02;100.00;98686.28;2623164;28;19930;-94
2023/07/11 00:42:07;;;;;;;;;;;;;;;18.82;100.00;98682.13;2621412;28;19932;-94
2023/07/11 00:43:22;;;;;;;;;;;;;;;18.84;100.00;98689.97;2624100;28;19955;-95
2023/07/11 00:44:49;;;;;;;;;;;;;;;18.76;100.00;98679.81;2624251;28;19924;-94
2023/07/11 00:46:10;;;;;;;;;;;;;;;18.92;100.00;98679.78;2625704;28;19923;-95
2023/07/11 00:47:26;;;;;;;;;;;;;;;19.01;100.00;98679.28;2630549;28;20286;-95
2023/07/11 00:48:44;;;;;;;;;;;;;;;18.96;100.00;98676.00;2623948;28;19920;-94
2023/07/11 00:50:03;;;;;;;;;;;;;;;18.75;100.00;98676.31;2622619;28;19965;-95
2023/07/11 00:51:28;;;;;;;;;;;;;;;18.75;100.00;98673.66;2624818;28;19924;-95
2023/07/11 00:52:43;;;;;;;;;;;;;;;18.71;100.00;98680.06;2625288;28;19924;-95
2023/07/11 00:54:00;;;;;;;;;;;;;;;18.82;100.00;98682.13;2630590;28;19923;-95
2023/07/11 00:55:15;;;;;;;;;;;;;;;18.73;100.00;98677.34;2619310;28;19969;-94
2023/07/11 00:56:33;;;;;;;;;;;;;;;18.66;100.00;98674.19;2619701;28;19924;-95
2023/07/11 00:57:48;;;;;;;;;;;;;;;18.54;100.00;98672.25;2630022;28;20020;-94
2023/07/11 00:59:05;;;;;;;;;;;;;;;18.56;100.00;98662.41;2624527;28;19924;-96
2023/07/11 01:00:20;;;;;;;;;;;;;;;18.61;100.00;98660.34;2623327;28;19931;-95
2023/07/11 01:01:36;;;;;;;;;;;;;;;18.66;100.00;98660.09;2624383;28;19927;-96
2023/07/11 01:02:51;;;;;;;;;;;;;;;18.65;100.00;98664.53;2624191;28;19960;-96
2023/07/11 01:04:07;;;;;;;;;;;;;;;18.55;100.00;98655.38;2630536;28;19939;-95
2023/07/11 01:05:22;;;;;;;;;;;;;;;18.58;100.00;98656.06;2620500;28;20363;-96
2023/07/11 01:06:38;;;;;;;;;;;;;;;18.64;100.00;98658.34;2618070;28;20366;-95
2023/07/11 01:07:54;;;;;;;;;;;;;;;18.67;100.00;98652.03;2629620;28;19927;-94
2023/07/11 01:09:10;;;;;;;;;;;;;;;18.66;100.00;98665.41;2624309;28;19923;-95
2023/07/11 01:10:26;;;;;;;;;;;;;;;18.54;100.00;98664.28;2624404;28;20018;-95
2023/07/11 01:11:53;;;;;;;;;;;;;;;18.51;100.00;98656.50;2624508;28;19924;-94
2023/07/11 01:13:09;;;;;;;;;;;;;;;18.29;100.00;98652.41;2615744;28;19932;-94
2023/07/11 01:14:25;;;;;;;;;;;;;;;18.31;100.00;98654.06;2617566;28;20474;-95
2023/07/11 01:15:40;;;;;;;;;;;;;;;18.35;100.00;98652.09;2624050;28;19931;-94
2023/07/11 01:16:56;;;;;;;;;;;;;;;18.31;100.00;98655.88;2624166;28;19931;-95
2023/07/11 01:18:12;;;;;;;;;;;;;;;18.11;100.00;98657.81;2630641;28;19923;-95
2023/07/11 01:19:27;;;;;;;;;;;;;;;18.04;100.00;98653.81;2624878;28;19924;-96
2023/07/11 01:20:42;;;;;;;;;;;;;;;18.08;100.00;98650.06;2622169;28;20315;-95
2023/07/11 01:21:59;;;;;;;;;;;;;;;18.17;100.00;98652.19;2624265;28;19924;-96
2023/07/11 01:23:15;;;;;;;;;;;;;;;18.09;100.00;98649.09;2622932;28;19924;-95
2023/07/11 01:24:30;;;;;;;;;;;;;;;18.18;100.00;98655.69;2624522;28;19923;-95
2023/07/11 01:25:46;;;;;;;;;;;;;;;18.09;100.00;98648.25;2623991;28;19938;-95
2023/07/11 01:27:02;;;;;;;;;;;;;;;17.99;100.00;98646.09;2624143;28;19924;-94
2023/07/11 01:28:17;;;;;;;;;;;;;;;17.90;100.00;98646.59;2620972;28;19920;-94
2023/07/11 01:29:33;;;;;;;;;;;;;;;17.81;100.00;98653.25;2624399;28;19971;-94
2023/07/11 01:30:48;;;;;;;;;;;;;;;17.90;100.00;98650.09;2622479;28;19987;-94
2023/07/11 01:32:04;;;;;;;;;;;;;;;17.93;100.00;98644.63;2622927;28;19919;-94
2023/07/11 01:33:20;;;;;;;;;;;;;;;17.97;100.00;98647.09;2619030;28;19979;-94
2023/07/11 01:34:35;;;;;;;;;;;;;;;17.97;100.00;98639.16;2620658;28;20081;-94
2023/07/11 01:35:52;;;;;;;;;;;;;;;18.05;100.00;98639.63;2624393;28;20094;-94
2023/07/11 01:37:07;;;;;;;;;;;;;;;18.01;100.00;98633.59;2624987;28;19932;-94
2023/07/11 01:38:24;;;;;;;;;;;;;;;17.88;100.00;98633.44;2625143;28;19920;-95
2023/07/11 01:39:39;;;;;;;;;;;;;;;17.83;100.00;98638.13;2630765;28;19924;-95
2023/07/11 01:40:55;;;;;;;;;;;;;;;18.02;100.00;98627.41;2630526;28;19969;-94
2023/07/11 01:42:10;;;;;;;;;;;;;;;18.01;100.00;98635.38;2623146;28;20370;-94
2023/07/11 01:43:26;;;;;;;;;;;;;;;17.90;100.00;98630.69;2627118;28;19932;-94
2023/07/11 01:44:42;;;;;;;;;;;;;;;18.01;100.00;98635.38;2624582;28;20406;-96
2023/07/11 01:45:57;;;;;;;;;;;;;;;18.07;100.00;98624.50;2624085;28;19967;-93
2023/07/11 01:47:13;;;;;;;;;;;;;;;18.00;100.00;98636.34;2623700;28;20035;-93
2023/07/11 01:48:28;;;;;;;;;;;;;;;17.99;100.00;98629.31;2629745;28;19920;-93
2023/07/11 01:49:44;;;;;;;;;;;;;;;17.96;100.00;98629.50;2630330;28;19920;-93
2023/07/11 01:50:59;;;;;;;;;;;;;;;17.83;100.00;98624.03;2624156;28;20020;-94
2023/07/11 01:52:19;;;;;;;;;;;;;;;17.83;100.00;98629.34;2627543;28;19924;-94
2023/07/11 01:53:34;;;;;;;;;;;;;;;17.90;100.00;98631.56;2630151;28;20035;-94
2023/07/11 01:54:50;;;;;;;;;;;;;;;17.87;100.00;98630.88;2618008;28;19924;-94
2023/07/11 01:56:05;;;;;;;;;;;;;;;17.73;100.00;98634.25;2623999;28;20639;-94
2023/07/11 01:57:21;;;;;;;;;;;;;;;17.72;100.00;98632.56;2624108;28;19973;-95
2023/07/11 01:58:38;;;;;;;;;;;;;;;17.62;100.00;98632.19;2630776;28;19924;-94
2023/07/11 01:59:53;;;;;;;;;;;;;;;17.74;100.00;98628.03;2621769;28;19954;-93
2023/07/11 02:01:09;;;;;;;;;;;;;;;17.52;100.00;98629.19;2623751;28;20295;-95
2023/07/11 02:02:24;;;;;;;;;;;;;;;17.38;100.00;98634.38;2624229;28;20008;-93
2023/07/11 02:03:40;;;;;;;;;;;;;;;17.32;100.00;98624.97;2624384;28;19931;-94
2023/07/11 02:04:55;;;;;;;;;;;;;;;17.49;100.00;98626.72;2621454;28;19924;-93
2023/07/11 02:06:11;;;;;;;;;;;;;;;17.26;100.00;98625.31;2623992;28;19969;-94
2023/07/11 02:07:26;;;;;;;;;;;;;;;17.32;100.00;98635.56;2624087;28;19931;-96
2023/07/11 02:08:42;;;;;;;;;;;;;;;17.44;100.00;98632.25;2622832;28;19924;-95
2023/07/11 02:09:57;;;;;;;;;;;;;;;17.39;100.00;98630.78;2624261;28;19935;-94
2023/07/11 02:11:13;;;;;;;;;;;;;;;17.48;100.00;98630.31;2623966;28;19924;-95
2023/07/11 02:12:28;;;;;;;;;;;;;;;17.50;100.00;98628.44;2622973;28;19920;-94
2023/07/11 02:13:43;;;;;;;;;;;;;;;17.59;100.00;98625.28;2625997;28;19927;-94
2023/07/11 02:14:59;;;;;;;;;;;;;;;17.51;100.00;98620.38;2626188;28;19924;-95
2023/07/11 02:16:14;;;;;;;;;;;;;;;17.55;100.00;98621.09;2614079;28;19983;-95
2023/07/11 02:17:30;;;;;;;;;;;;;;;17.51;100.00;98624.84;2619687;28;19970;-95
2023/07/11 02:18:45;;;;;;;;;;;;;;;17.32;100.00;98628.47;2625721;28;19927;-94
2023/07/11 02:20:01;;;;;;;;;;;;;;;17.31;100.00;98633.84;2625139;28;20806;-95
2023/07/11 02:21:17;;;;;;;;;;;;;;;17.33;100.00;98637.25;2625607;28;19938;-95
2023/07/11 02:22:32;;;;;;;;;;;;;;;17.14;100.00;98626.78;2626087;28;20852;-94
2023/07/11 02:23:48;;;;;;;;;;;;;;;17.21;100.00;98634.31;2622438;28;19930;-94
2023/07/11 02:25:03;;;;;;;;;;;;;;;17.21;100.00;98628.19;2632340;28;19924;-93
2023/07/11 02:26:19;;;;;;;;;;;;;;;17.24;100.00;98630.66;2625685;28;20284;-94
2023/07/11 02:27:34;;;;;;;;;;;;;;;17.12;100.00;98631.31;2626001;28;19924;-95
2023/07/11 02:28:50;;;;;;;;;;;;;;;17.23;100.00;98631.59;2631671;28;19976;-95
2023/07/11 02:30:05;;;;;;;;;;;;;;;17.20;100.00;98632.59;2631933;28;19920;-95
2023/07/11 02:31:21;;;;;;;;;;;;;;;17.30;100.00;98640.06;2624240;28;20279;-94
2023/07/11 02:32:39;;;;;;;;;;;;;;;17.34;100.00;98639.84;2625305;28;20290;-95
2023/07/11 02:33:54;;;;;;;;;;;;;;;17.39;100.00;98636.94;2625670;28;19931;-96
2023/07/11 02:35:10;;;;;;;;;;;;;;;17.47;100.00;98632.09;2631891;28;19920;-96
2023/07/11 02:36:26;;;;;;;;;;;;;;;17.32;100.00;98632.91;2624100;28;20433;-95
2023/07/11 02:37:41;;;;;;;;;;;;;;;17.19;100.00;98636.19;2623714;28;19926;-96
2023/07/11 02:38:58;;;;;;;;;;;;;;;17.14;100.00;98635.59;2625714;28;19928;-94
2023/07/11 02:40:14;;;;;;;;;;;;;;;17.16;100.00;98631.06;2626118;28;20437;-96
2023/07/11 02:41:29;;;;;;;;;;;;;;;17.29;100.00;98636.56;2626013;28;19928;-96
2023/07/11 02:42:45;;;;;;;;;;;;;;;17.34;100.00;98633.69;2625610;28;19927;-95
2023/07/11 02:44:00;;;;;;;;;;;;;;;17.21;100.00;98631.66;2628806;28;19919;-96
2023/07/11 02:45:15;;;;;;;;;;;;;;;16.88;100.00;98626.31;2631652;28;20020;-96
2023/07/11 02:46:31;;;;;;;;;;;;;;;17.04;100.00;98629.94;2626343;28;19965;-96
2023/07/11 02:47:47;;;;;;;;;;;;;;;17.19;100.00;98635.34;2619697;28;19924;-94
2023/07/11 02:49:03;;;;;;;;;;;;;;;17.01;100.00;98635.34;2619419;28;19970;-96
2023/07/11 02:50:18;;;;;;;;;;;;;;;17.15;100.00;98636.44;2625417;28;19973;-96
2023/07/11 02:51:35;;;;;;;;;;;;;;;17.07;100.00;98635.06;2625438;28;20425;-96
2023/07/11 02:52:50;;;;;;;;;;;;;;;17.04;100.00;98639.63;2621077;28;19935;-96
2023/07/11 02:54:06;;;;;;;;;;;;;;;17.04;100.00;98642.28;2625542;28;19920;-96
2023/07/11 02:55:21;;;;;;;;;;;;;;;17.11;100.00;98640.19;2615120;28;19943;-96
2023/07/11 02:56:37;;;;;;;;;;;;;;;17.07;100.00;98644.75;2624671;28;19927;-95
2023/07/11 02:57:53;;;;;;;;;;;;;;;17.03;100.00;98632.63;2631436;28;19923;-93
2023/07/11 02:59:08;;;;;;;;;;;;;;;16.89;100.00;98633.28;2622281;28;19959;-96
2023/07/11 03:00:23;;;;;;;;;;;;;;;16.76;100.00;98641.88;2622988;28;19924;-96
2023/07/11 03:01:39;;;;;;;;;;;;;;;16.87;100.00;98640.47;2625765;28;20030;-95
2023/07/11 03:02:55;;;;;;;;;;;;;;;16.77;100.00;98638.31;2624798;28;19924;-96
2023/07/11 03:04:10;;;;;;;;;;;;;;;16.67;100.00;98639.69;2622177;28;19930;-96
2023/07/11 03:05:26;;;;;;;;;;;;;;;16.92;100.00;98635.81;2625229;28;19950;-96
2023/07/11 03:06:41;;;;;;;;;;;;;;;17.04;100.00;98637.00;2626361;28;19973;-96
2023/07/11 03:07:57;;;;;;;;;;;;;;;17.03;100.00;98636.13;2625896;28;19931;-96
2023/07/11 03:09:12;;;;;;;;;;;;;;;17.01;100.00;98635.34;2625706;28;20092;-96
2023/07/11 03:10:27;;;;;;;;;;;;;;;17.06;100.00;98637.75;2624070;28;19925;-96
2023/07/11 03:11:43;;;;;;;;;;;;;;;17.12;100.00;98633.94;2623663;28;19958;-96
2023/07/11 03:12:58;;;;;;;;;;;;;;;17.20;100.00;98637.06;2625463;28;19950;-96
2023/07/11 03:14:14;;;;;;;;;;;;;;;17.04;100.00;98634.34;2625234;28;20329;-96
2023/07/11 03:15:30;;;;;;;;;;;;;;;17.13;100.00;98633.00;2623316;28;19972;-96
2023/07/11 03:16:49;;;;;;;;;;;;;;;17.20;100.00;98632.59;2626338;28;20003;-96
2023/07/11 03:18:05;;;;;;;;;;;;;;;17.10;100.00;98633.19;2637982;28;20006;-96
2023/07/11 03:19:21;;;;;;;;;;;;;;;16.95;100.00;98636.47;2622930;28;19924;-96
2023/07/11 03:20:38;;;;;;;;;;;;;;;16.94;100.00;98636.59;2624213;28;19925;-96
2023/07/11 03:21:54;;;;;;;;;;;;;;;16.91;100.00;98628.81;2623631;28;19924;-96
2023/07/11 03:23:11;;;;;;;;;;;;;;;17.00;100.00;98633.63;2630431;28;19934;-96
2023/07/11 03:24:28;;;;;;;;;;;;;;;17.07;100.00;98632.41;2641812;28;19970;-96
2023/07/11 03:25:48;;;;;;;;;;;;;;;16.94;100.00;98632.13;2637263;28;19930;-94
2023/07/11 03:27:04;;;;;;;;;;;;;;;17.02;100.00;98637.06;2613866;28;19924;-93
2023/07/11 03:28:20;;;;;;;;;;;;;;;17.06;100.00;98630.69;2618353;28;19924;-95
2023/07/11 03:29:35;;;;;;;;;;;;;;;17.06;100.00;98640.41;2625425;28;19923;-94
2023/07/11 03:30:51;;;;;;;;;;;;;;;17.16;100.00;98641.66;2624924;28;19939;-94
2023/07/11 03:32:10;;;;;;;;;;;;;;;17.17;100.00;98642.50;2618840;28;19924;-95
2023/07/11 03:33:25;;;;;;;;;;;;;;;17.23;100.00;98645.66;2621712;28;19924;-95
2023/07/11 03:34:41;;;;;;;;;;;;;;;17.27;100.00;98646.38;2621982;28;19920;-94
2023/07/11 03:35:56;;;;;;;;;;;;;;;17.31;100.00;98645.28;2621669;28;19949;-95
2023/07/11 03:37:12;;;;;;;;;;;;;;;17.35;100.00;98643.31;2624145;28;19963;-94
2023/07/11 03:38:27;;;;;;;;;;;;;;;17.43;100.00;98645.56;2623668;28;20545;-94
2023/07/11 03:39:43;;;;;;;;;;;;;;;17.43;100.00;98648.22;2629975;28;20050;-94
2023/07/11 03:40:58;;;;;;;;;;;;;;;17.43;100.00;98645.56;2630557;28;20443;-92
2023/07/11 03:42:14;;;;;;;;;;;;;;;17.48;100.00;98647.03;2623869;28;19977;-94
2023/07/11 03:43:29;;;;;;;;;;;;;;;17.55;100.00;98646.72;2627565;28;19974;-94
2023/07/11 03:44:45;;;;;;;;;;;;;;;17.57;100.00;98647.50;2624444;28;19931;-94
2023/07/11 03:46:00;;;;;;;;;;;;;;;17.62;100.00;98646.31;2623964;28;19934;-94
2023/07/11 03:47:15;;;;;;;;;;;;;;;17.65;100.00;98650.56;2622390;28;20373;-94
2023/07/11 03:48:31;;;;;;;;;;;;;;;17.60;100.00;98650.84;2621980;28;20436;-94
2023/07/11 03:49:47;;;;;;;;;;;;;;;17.69;100.00;98645.97;2624583;28;19924;-94
2023/07/11 03:51:02;;;;;;;;;;;;;;;17.68;100.00;98644.25;2622685;28;20029;-94
2023/07/11 03:52:17;;;;;;;;;;;;;;;17.67;100.00;98647.84;2621399;28;19971;-93
2023/07/11 03:53:33;;;;;;;;;;;;;;;17.69;100.00;98646.84;2624410;28;19927;-94
2023/07/11 03:54:48;;;;;;;;;;;;;;;17.73;100.00;98650.16;2624294;28;20150;-94
2023/07/11 03:56:05;;;;;;;;;;;;;;;17.73;100.00;98648.38;2622037;28;20447;-94
2023/07/11 03:57:20;;;;;;;;;;;;;;;17.47;100.00;98650.63;2630578;28;19924;-93
2023/07/11 03:58:35;;;;;;;;;;;;;;;17.41;100.00;98650.97;2622765;28;19924;-95
2023/07/11 03:59:51;;;;;;;;;;;;;;;17.26;100.00;98655.25;2620961;28;19923;-95
2023/07/11 04:01:06;;;;;;;;;;;;;;;17.25;100.00;98652.66;2624128;28;19923;-95
2023/07/11 04:02:22;;;;;;;;;;;;;;;17.28;100.00;98645.44;2624356;28;19924;-95
2023/07/11 04:03:37;;;;;;;;;;;;;;;17.29;100.00;98651.59;2624733;28;20272;-95
2023/07/11 04:04:53;;;;;;;;;;;;;;;17.50;100.00;98655.75;2624253;28;20038;-95
2023/07/11 04:06:08;;;;;;;;;;;;;;;17.44;100.00;98655.22;2622346;28;19925;-94
2023/07/11 04:07:24;;;;;;;;;;;;;;;17.38;100.00;98648.44;2620846;28;19920;-94
2023/07/11 04:08:39;;;;;;;;;;;;;;;17.49;100.00;98647.91;2624204;28;19924;-93
2023/07/11 04:09:55;;;;;;;;;;;;;;;17.46;100.00;98648.03;2624200;28;20306;-94
2023/07/11 04:11:10;;;;;;;;;;;;;;;17.61;100.00;98649.91;2623512;28;20428;-96
2023/07/11 04:12:26;;;;;;;;;;;;;;;17.68;100.00;98647.78;2631128;28;19920;-96
2023/07/11 04:13:41;;;;;;;;;;;;;;;17.75;100.00;98645.66;2627608;28;19978;-96
2023/07/11 04:14:57;;;;;;;;;;;;;;;17.78;100.00;98642.81;2628074;28;19924;-96
2023/07/11 04:16:16;;;;;;;;;;;;;;;17.79;100.00;98640.06;2617786;28;19928;-96
2023/07/11 04:17:37;;;;;;;;;;;;;;;17.79;100.00;98647.19;2627402;28;19924;-96
2023/07/11 04:19:06;;;;;;;;;;;;;;;17.75;100.00;98645.66;2643532;28;19977;-95
2023/07/11 04:20:45;;;;;;;;;;;;;;;17.68;100.00;98642.47;2642283;28;19920;-96
2023/07/11 04:22:19;;;;;;;;;;;;;;;17.81;100.00;98642.66;2624640;28;20524;-96
2023/07/11 04:23:35;;;;;;;;;;;;;;;17.80;100.00;98646.25;2607903;28;19925;-96
2023/07/11 04:24:51;;;;;;;;;;;;;;;17.87;100.00;98644.94;2606263;28;19947;-96
2023/07/11 04:26:08;;;;;;;;;;;;;;;17.83;100.00;98645.22;2601512;28;19950;-96
2023/07/11 04:27:24;;;;;;;;;;;;;;;17.95;100.00;98638.38;2603628;28;19925;-94
2023/07/11 04:28:40;;;;;;;;;;;;;;;17.77;100.00;98646.41;2613210;28;20051;-91
2023/07/11 04:29:55;;;;;;;;;;;;;;;17.81;100.00;98640.00;2620048;28;19954;-93
2023/07/11 04:31:11;;;;;;;;;;;;;;;17.92;100.00;98640.28;2606466;28;20266;-92
2023/07/11 04:32:27;;;;;;;;;;;;;;;17.79;100.00;98637.44;2609677;28;19967;-92
2023/07/11 04:33:42;;;;;;;;;;;;;;;17.82;100.00;98636.41;2619539;28;20448;-93
2023/07/11 04:34:58;;;;;;;;;;;;;;;17.86;100.00;98640.59;2620059;28;20034;-92
2023/07/11 04:36:15;;;;;;;;;;;;;;;18.02;100.00;98645.94;2608570;28;20059;-95
2023/07/11 04:37:30;;;;;;;;;;;;;;;18.16;100.00;98637.25;2613398;28;19934;-92
2023/07/11 04:38:45;;;;;;;;;;;;;;;18.10;100.00;98639.38;2619904;28;19982;-92
2023/07/11 04:40:01;;;;;;;;;;;;;;;18.06;100.00;98642.16;2606534;28;19925;-92
2023/07/11 04:41:16;;;;;;;;;;;;;;;17.92;100.00;98640.28;2601527;28;20368;-92
2023/07/11 04:42:32;;;;;;;;;;;;;;;17.98;100.00;98640.88;2602984;28;19924;-92
2023/07/11 04:43:47;;;;;;;;;;;;;;;17.90;100.00;98646.59;2602983;28;20380;-93
2023/07/11 04:45:03;;;;;;;;;;;;;;;17.99;100.00;98643.44;2607436;28;20487;-92
2023/07/11 04:46:18;;;;;;;;;;;;;;;17.80;100.00;98640.94;2599311;28;19928;-92
2023/07/11 04:47:34;;;;;;;;;;;;;;;17.75;100.00;98641.19;2613467;28;19931;-92
2023/07/11 04:48:50;;;;;;;;;;;;;;;17.97;100.00;98641.81;2608588;28;19924;-92
2023/07/11 04:50:06;;;;;;;;;;;;;;;18.08;100.00;98639.44;2598641;28;19924;-91
2023/07/11 04:51:21;;;;;;;;;;;;;;;17.97;100.00;98637.38;2607367;28;20313;-92
2023/07/11 04:52:37;;;;;;;;;;;;;;;18.02;100.00;98640.66;2612856;28;20718;-92
2023/07/11 04:53:52;;;;;;;;;;;;;;;17.88;100.00;98641.38;2608747;28;19982;-92
2023/07/11 04:55:08;;;;;;;;;;;;;;;18.00;100.00;98646.94;2612777;28;19950;-92
2023/07/11 04:56:23;;;;;;;;;;;;;;;18.12;100.00;98637.50;2606672;28;19924;-92
2023/07/11 04:57:39;;;;;;;;;;;;;;;18.03;100.00;98646.81;2608204;28;19924;-91
2023/07/11 04:58:54;;;;;;;;;;;;;;;18.32;100.00;98647.81;2602347;28;20016;-92
2023/07/11 05:00:10;;;;;;;;;;;;;;;18.39;100.00;98648.31;2613157;28;19920;-93
2023/07/11 05:01:25;;;;;;;;;;;;;;;18.43;100.00;98651.66;2620269;28;20287;-92
2023/07/11 05:02:41;;;;;;;;;;;;;;;18.41;100.00;98648.25;2609053;28;20299;-91
2023/07/11 05:03:57;;;;;;;;;;;;;;;18.48;100.00;98647.81;2608401;28;20380;-90
2023/07/11 05:05:12;;;;;;;;;;;;;;;18.47;100.00;98646.09;2613171;28;19952;-93
2023/07/11 05:06:27;;;;;;;;;;;;;;;18.53;100.00;98650.19;2608856;28;20023;-91
2023/07/11 05:07:43;;;;;;;;;;;;;;;18.62;100.00;98649.63;2613213;28;19955;-91
2023/07/11 05:08:59;;;;;;;;;;;;;;;18.68;100.00;98644.94;2619805;28;19920;-91
2023/07/11 05:10:14;;;;;;;;;;;;;;;18.86;100.00;98643.00;2619605;28;19970;-92
2023/07/11 05:11:29;;;;;;;;;;;;;;;19.07;100.00;98650.66;2619854;28;20331;-91
2023/07/11 05:12:45;;;;;;;;;;;;;;;18.99;100.00;98651.09;2619721;28;19924;-91
2023/07/11 05:14:00;;;;;;;;;;;;;;;19.12;100.00;98646.78;2619631;28;19920;-91
2023/07/11 05:15:16;;;;;;;;;;;;;;;19.04;100.00;98654.34;2619837;28;19944;-92
2023/07/11 05:16:32;;;;;;;;;;;;;;;19.16;100.00;98648.31;2608723;28;20030;-91
2023/07/11 05:17:47;;;;;;;;;;;;;;;19.26;100.00;98640.63;2613102;28;19920;-91
2023/07/11 05:19:02;;;;;;;;;;;;;;;19.31;100.00;98648.31;2619640;28;19968;-91
2023/07/11 05:20:18;;;;;;;;;;;;;;;19.33;100.00;98643.75;2619792;28;20342;-91
2023/07/11 05:21:33;;;;;;;;;;;;;;;19.33;100.00;98647.28;2619957;28;19924;-92
2023/07/11 05:22:49;;;;;;;;;;;;;;;19.13;100.00;98644.97;2626234;28;20473;-91
2023/07/11 05:24:05;;;;;;;;;;;;;;;19.45;100.00;98647.50;2630228;28;19947;-91
2023/07/11 05:25:20;;;;;;;;;;;;;;;19.51;100.00;98651.56;2617011;28;19924;-92
2023/07/11 05:26:36;;;;;;;;;;;;;;;19.38;100.00;98652.31;2619572;28;20478;-92
2023/07/11 05:27:52;;;;;;;;;;;;;;;19.48;100.00;98648.13;2630209;28;20268;-95
2023/07/11 05:29:07;;;;;;;;;;;;;;;19.65;100.00;98645.41;2612528;28;19982;-90
2023/07/11 05:30:22;;;;;;;;;;;;;;;19.76;100.00;98642.91;2618952;28;19931;-90
2023/07/11 05:31:38;;;;;;;;;;;;;;;19.65;100.00;98645.41;2612994;28;19928;-91
2023/07/11 05:32:54;;;;;;;;;;;;;;;19.46;100.00;98649.19;2620117;28;19924;-90
2023/07/11 05:34:10;;;;;;;;;;;;;;;19.76;100.00;98642.91;2629994;28;19924;-91
2023/07/11 05:35:25;;;;;;;;;;;;;;;19.80;100.00;98649.75;2619097;28;19924;-91
2023/07/11 05:36:40;;;;;;;;;;;;;;;19.79;100.00;98644.53;2623463;28;20424;-92
2023/07/11 05:37:56;;;;;;;;;;;;;;;19.87;100.00;98645.75;2615785;28;19956;-92
2023/07/11 05:39:13;;;;;;;;;;;;;;;20.03;100.00;98643.00;2619155;28;19965;-92
2023/07/11 05:40:30;;;;;;;;;;;;;;;20.14;100.00;98633.50;2630031;28;19935;-92
2023/07/11 05:41:49;;;;;;;;;;;;;;;19.91;100.00;98643.78;2615869;28;19924;-91
2023/07/11 05:43:04;;;;;;;;;;;;;;;20.11;100.00;98636.34;2622283;28;19920;-91
2023/07/11 05:44:20;;;;;;;;;;;;;;;20.13;100.00;98635.31;2618948;28;19935;-91
2023/07/11 05:45:35;;;;;;;;;;;;;;;20.34;100.00;98639.34;2624551;28;20397;-92
2023/07/11 05:46:50;;;;;;;;;;;;;;;20.45;100.00;98640.31;2632325;28;20046;-91
2023/07/11 05:48:06;;;;;;;;;;;;;;;20.45;100.00;98631.47;2632130;28;19931;-91
2023/07/11 05:49:21;;;;;;;;;;;;;;;20.34;100.00;98628.69;2632351;28;19919;-91
2023/07/11 05:50:37;;;;;;;;;;;;;;;20.48;100.00;98630.44;2632057;28;19923;-88
2023/07/11 05:51:52;;;;;;;;;;;;;;;20.72;100.00;98635.94;2632179;28;19920;-89
2023/07/11 05:53:07;;;;;;;;;;;;;;;20.77;100.00;98630.31;2631967;28;19923;-89
2023/07/11 05:54:23;;;;;;;;;;;;;;;20.56;100.00;98628.97;2632223;28;19927;-89
2023/07/11 05:55:38;;;;;;;;;;;;;;;20.64;100.00;98628.47;2631964;28;19920;-89
2023/07/11 05:56:53;;;;;;;;;;;;;;;20.55;100.00;98626.44;2632064;28;19959;-90
2023/07/11 05:58:09;;;;;;;;;;;;;;;20.72;100.00;98627.94;2632050;28;19927;-90
2023/07/11 05:59:24;;;;;;;;;;;;;;;20.86;100.00;98627.91;2633209;28;19919;-89
2023/07/11 06:00:41;;;;;;;;;;;;;;;20.92;100.00;98620.47;2633897;28;19923;-90
2023/07/11 06:01:56;;;;;;;;;;;;;;;21.00;100.00;98624.31;2633757;28;19923;-89
2023/07/11 06:03:12;;;;;;;;;;;;;;;21.09;100.00;98616.63;2634157;28;19923;-89
2023/07/11 06:04:27;;;;;;;;;;;;;;;21.01;100.00;98623.34;2634876;28;20014;-89
2023/07/11 06:05:43;;;;;;;;;;;;;;;21.18;100.00;98626.66;2623758;28;19982;-90
2023/07/11 06:06:58;;;;;;;;;;;;;;;21.29;100.00;98621.44;2628263;28;20333;-90
2023/07/11 06:08:14;;;;;;;;;;;;;;;21.33;100.00;98621.22;2632856;28;19928;-91
2023/07/11 06:09:29;;;;;;;;;;;;;;;21.42;100.00;98623.25;2632177;28;19920;-90
2023/07/11 06:10:45;;;;;;;;;;;;;;;21.53;100.00;98620.69;2631534;28;19950;-91
2023/07/11 06:12:00;;;;;;;;;;;;;;;21.55;100.00;98621.44;2631773;28;20295;-89
2023/07/11 06:13:16;;;;;;;;;;;;;;;21.60;100.00;98615.78;2632080;28;20384;-90
2023/07/11 06:14:31;;;;;;;;;;;;;;;21.86;100.00;98618.41;2632114;28;19927;-89
2023/07/11 06:15:46;;;;;;;;;;;;;;;21.85;100.00;98614.91;2620401;28;20846;-89
2023/07/11 06:17:02;;;;;;;;;;;;;;;22.01;100.00;98614.66;2620727;28;20017;-89
2023/07/11 06:18:18;;;;;;;;;;;;;;;22.08;100.00;98620.38;2614614;28;20139;-92
2023/07/11 06:19:34;;;;;;;;;;;;;;;22.12;100.00;98624.53;2620436;28;20395;-90
2023/07/11 06:20:50;;;;;;;;;;;;;;;22.09;100.00;98615.88;2624684;28;19932;-89
2023/07/11 06:22:05;;;;;;;;;;;;;;;22.14;100.00;98621.72;2631980;28;19969;-89
2023/07/11 06:23:21;;;;;;;;;;;;;;;22.13;100.00;98620.91;2632064;28;19927;-90
2023/07/11 06:24:37;;;;;;;;;;;;;;;22.21;100.00;98614.13;2631841;28;19920;-90
2023/07/11 06:25:52;;;;;;;;;;;;;;;22.22;100.00;98614.03;2631582;28;19967;-89
2023/07/11 06:27:07;;;;;;;;;;;;;;;22.38;100.00;98618.22;2632069;28;19981;-89
2023/07/11 06:28:23;;;;;;;;;;;;;;;22.45;100.00;98619.50;2632170;28;19924;-90
2023/07/11 06:29:38;;;;;;;;;;;;;;;22.44;100.00;98615.13;2631646;28;19977;-89
2023/07/11 06:30:58;;;;;;;;;;;;;;;22.55;100.00;98614.34;2631508;28;19924;-90